< < Back
Terminal Aerodrome Forecast


Current Version              Previous Versions:   1  2  3  4  5  6  7  8  9  

Terminal Aerodrome Forecast

543
FTUS42 KFFC 011100
TAFPDK
TAF
KPDK 011140Z 0112/0212 00000KT P6SM SCT150
     FM011400 VRB03KT P6SM SCT035 SCT150
     FM011800 24005KT P6SM SCT050 SCT150 PROB30 0121/0201 -TSRA
      BKN050CB
     FM020100 00000KT P6SM FEW060 SCT150=

Latest METAR

376
SAUS70 KWBC 020200 RRN
MTRPDK
METAR KPDK 020153Z 12003KT 10SM CLR 24/21 A3012 RMK AO2 SLP181
T02440211


USA.gov is the U.S. government's official web portal to all federal, state and local government web resources and services.